Time,TemperatureF,DewpointF,PressureIn,WindDirection,WindDirectionDegrees,WindSpeedMPH,WindSpeedGustMPH,Humidity,HourlyPrecipIn,Conditions,Clouds,dailyrainin,SoftwareType,DateUTC
2013-03-31 00:01:00,30.0,23.0,30.41,North,353,9.0,14.0,74,0.00,,,0.00,,2013-03-31 07:01:00,
2013-03-31 00:11:00,30.0,23.0,30.41,North,353,9.0,14.0,74,0.00,,,0.00,,2013-03-31 07:11:00,
2013-03-31 00:21:00,30.0,22.0,30.41,NNW,338,6.0,11.0,73,0.00,,,0.00,,2013-03-31 07:21:00,
2013-03-31 00:31:00,29.0,22.0,30.39,North,349,7.0,10.0,74,0.00,,,0.00,,2013-03-31 07:31:00,
2013-03-31 00:42:00,29.0,22.0,30.39,North,349,7.0,10.0,74,0.00,,,0.00,,2013-03-31 07:42:00,
2013-03-31 00:52:00,29.0,22.0,30.39,North,351,7.0,10.0,74,0.00,,,0.00,,2013-03-31 07:52:00,
2013-03-31 01:01:00,30.0,22.0,30.39,North,350,6.0,9.0,73,0.00,,,0.00,,2013-03-31 08:01:00,
2013-03-31 01:11:00,30.0,22.0,30.39,North,350,6.0,9.0,73,0.00,,,0.00,,2013-03-31 08:11:00,
2013-03-31 01:21:00,30.0,22.0,30.39,North,351,6.0,10.0,71,0.00,,,0.00,,2013-03-31 08:21:00,
2013-03-31 01:32:00,30.0,21.0,30.39,North,353,5.0,10.0,68,0.00,,,0.00,,2013-03-31 08:32:00,
2013-03-31 01:52:00,30.0,21.0,30.38,North,5,7.0,8.0,68,0.00,,,0.00,,2013-03-31 08:52:00,
2013-03-31 02:01:00,31.0,21.0,30.38,North,1,4.0,9.0,66,0.00,,,0.00,,2013-03-31 09:01:00,
2013-03-31 02:11:00,31.0,21.0,30.38,North,1,4.0,9.0,66,0.00,,,0.00,,2013-03-31 09:11:00,
2013-03-31 02:21:00,31.0,21.0,30.38,NNE,30,2.0,4.0,65,0.00,,,0.00,,2013-03-31 09:21:00,
2013-03-31 02:32:00,30.0,20.0,30.38,North,351,4.0,6.0,65,0.00,,,0.00,,2013-03-31 09:32:00,
2013-03-31 02:53:00,31.0,20.0,30.37,North,350,3.0,5.0,64,0.00,,,0.00,,2013-03-31 09:53:00,
2013-03-31 03:02:00,31.0,20.0,30.37,NNE,12,1.0,2.0,64,0.00,,,0.00,,2013-03-31 10:02:00,
2013-03-31 03:12:00,31.0,20.0,30.37,NNE,12,1.0,2.0,64,0.00,,,0.00,,2013-03-31 10:12:00,
2013-03-31 03:22:00,31.0,21.0,30.37,NE,39,1.0,3.0,65,0.00,,,0.00,,2013-03-31 10:22:00,
2013-03-31 03:32:00,31.0,21.0,30.37,NNE,29,2.0,4.0,65,0.00,,,0.00,,2013-03-31 10:32:00,
2013-03-31 03:52:00,30.0,20.0,30.37,North,4,3.0,4.0,65,0.00,,,0.00,,2013-03-31 10:52:00,
2013-03-31 04:02:00,30.0,20.0,30.36,North,5,2.0,4.0,65,0.00,,,0.00,,2013-03-31 11:02:00,
2013-03-31 04:11:00,30.0,20.0,30.36,North,5,2.0,4.0,65,0.00,,,0.00,,2013-03-31 11:11:00,
2013-03-31 04:22:00,30.0,20.0,30.37,North,0,0.0,3.0,65,0.00,,,0.00,,2013-03-31 11:22:00,
2013-03-31 04:32:00,30.0,20.0,30.37,North,0,0.0,1.0,66,0.00,,,0.00,,2013-03-31 11:32:00,
2013-03-31 04:52:00,29.0,20.0,30.37,North,0,0.0,2.0,68,0.00,,,0.00,,2013-03-31 11:52:00,
2013-03-31 05:02:00,30.0,20.0,30.37,SSE,157,3.0,4.0,66,0.00,,,0.00,,2013-03-31 12:02:00,
2013-03-31 05:11:00,30.0,20.0,30.37,SSE,157,3.0,4.0,66,0.00,,,0.00,,2013-03-31 12:11:00,
2013-03-31 05:22:00,31.0,21.0,30.37,South,177,1.0,4.0,65,0.00,,,0.00,,2013-03-31 12:22:00,
2013-03-31 05:32:00,30.0,20.0,30.37,NW,305,1.0,3.0,67,0.00,,,0.00,,2013-03-31 12:32:00,
2013-03-31 05:52:00,30.0,20.0,30.37,NW,311,2.0,4.0,67,0.00,,,0.00,,2013-03-31 12:52:00,
2013-03-31 06:01:00,30.0,21.0,30.37,North,9,3.0,5.0,69,0.00,,,0.00,,2013-03-31 13:01:00,
2013-03-31 06:22:00,30.0,20.0,30.37,NE,39,2.0,5.0,67,0.00,,,0.00,,2013-03-31 13:22:00,
2013-03-31 06:31:00,30.0,20.0,30.38,SE,129,3.0,5.0,66,0.00,,,0.00,,2013-03-31 13:31:00,
2013-03-31 06:52:00,30.0,20.0,30.38,SE,129,3.0,5.0,66,0.00,,,0.00,,2013-03-31 13:52:00,
2013-03-31 07:01:00,30.0,20.0,30.38,SE,133,5.0,8.0,67,0.00,,,0.00,,2013-03-31 14:01:00,
2013-03-31 07:22:00,30.0,20.0,30.38,SE,135,3.0,6.0,67,0.00,,,0.00,,2013-03-31 14:22:00,
2013-03-31 07:32:00,30.0,20.0,30.38,SE,124,5.0,8.0,66,0.00,,,0.00,,2013-03-31 14:32:00,
2013-03-31 07:52:00,31.0,21.0,30.39,SE,144,5.0,9.0,66,0.00,,,0.00,,2013-03-31 14:52:00,
2013-03-31 08:01:00,31.0,21.0,30.38,SSE,154,5.0,9.0,66,0.00,,,0.00,,2013-03-31 15:01:00,
2013-03-31 08:21:00,32.0,21.0,30.39,South,191,5.0,11.0,63,0.00,,,0.00,,2013-03-31 15:21:00,
2013-03-31 08:32:00,33.0,21.0,30.39,South,180,4.0,8.0,62,0.00,,,0.00,,2013-03-31 15:32:00,
2013-03-31 08:53:00,33.0,21.0,30.39,South,188,3.0,8.0,60,0.00,,,0.00,,2013-03-31 15:53:00,
2013-03-31 09:02:00,34.0,22.0,30.39,SSW,192,2.0,9.0,60,0.00,,,0.00,,2013-03-31 16:02:00,
2013-03-31 09:12:00,34.0,22.0,30.39,SSW,192,2.0,9.0,60,0.00,,,0.00,,2013-03-31 16:12:00,
2013-03-31 09:22:00,34.0,21.0,30.39,South,184,6.0,12.0,58,0.00,,,0.00,,2013-03-31 16:22:00,
2013-03-31 09:32:00,35.0,22.0,30.39,SSE,167,4.0,9.0,58,0.00,,,0.00,,2013-03-31 16:32:00,
2013-03-31 09:42:00,35.0,22.0,30.39,SSE,167,4.0,9.0,58,0.00,,,0.00,,2013-03-31 16:42:00,
2013-03-31 09:53:00,35.0,21.0,30.40,South,190,5.0,12.0,57,0.00,,,0.00,,2013-03-31 16:53:00,
2013-03-31 10:02:00,35.0,21.0,30.40,South,178,6.0,14.0,56,0.00,,,0.00,,2013-03-31 17:02:00,
2013-03-31 10:12:00,35.0,21.0,30.40,South,178,6.0,14.0,56,0.00,,,0.00,,2013-03-31 17:12:00,
2013-03-31 10:22:00,36.0,22.0,30.40,South,189,8.0,12.0,56,0.00,,,0.00,,2013-03-31 17:22:00,
2013-03-31 10:31:00,36.0,21.0,30.40,South,185,8.0,15.0,55,0.00,,,0.00,,2013-03-31 17:31:00,
2013-03-31 10:42:00,36.0,21.0,30.40,South,185,8.0,15.0,55,0.00,,,0.00,,2013-03-31 17:42:00,
2013-03-31 10:52:00,36.0,21.0,30.41,SSW,210,7.0,15.0,54,0.00,,,0.00,,2013-03-31 17:52:00,
2013-03-31 11:01:00,36.0,21.0,30.41,SSW,195,8.0,12.0,55,0.00,,,0.00,,2013-03-31 18:01:00,
2013-03-31 11:12:00,36.0,21.0,30.41,SSW,195,8.0,12.0,55,0.00,,,0.00,,2013-03-31 18:12:00,
2013-03-31 11:21:00,35.0,22.0,30.41,South,186,8.0,17.0,59,0.00,,,0.00,,2013-03-31 18:21:00,
2013-03-31 11:32:00,35.0,23.0,30.42,SSW,206,6.0,10.0,61,0.00,,,0.00,,2013-03-31 18:32:00,
2013-03-31 11:41:00,35.0,23.0,30.42,SSW,206,6.0,10.0,61,0.00,,,0.00,,2013-03-31 18:41:00,
2013-03-31 11:52:00,35.0,23.0,30.41,SSW,198,7.0,17.0,61,0.00,,,0.00,,2013-03-31 18:52:00,
2013-03-31 12:02:00,35.0,22.0,30.41,SSW,197,7.0,13.0,59,0.00,,,0.00,,2013-03-31 19:02:00,
2013-03-31 12:11:00,35.0,22.0,30.41,SSW,197,7.0,13.0,59,0.00,,,0.00,,2013-03-31 19:11:00,
2013-03-31 12:21:00,36.0,23.0,30.40,South,182,6.0,15.0,58,0.00,,,0.00,,2013-03-31 19:21:00,
2013-03-31 12:32:00,38.0,24.0,30.41,South,185,9.0,17.0,57,0.00,,,0.00,,2013-03-31 19:32:00,
2013-03-31 12:42:00,38.0,24.0,30.41,South,185,9.0,17.0,57,0.00,,,0.00,,2013-03-31 19:42:00,
2013-03-31 12:53:00,38.0,24.0,30.40,South,191,8.0,19.0,56,0.00,,,0.00,,2013-03-31 19:53:00,
2013-03-31 13:02:00,38.0,22.0,30.40,SSW,198,8.0,20.0,53,0.00,,,0.00,,2013-03-31 20:02:00,
2013-03-31 13:11:00,38.0,22.0,30.40,SSW,198,8.0,20.0,53,0.00,,,0.00,,2013-03-31 20:11:00,
2013-03-31 13:21:00,37.0,22.0,30.40,South,176,10.0,18.0,55,0.00,,,0.00,,2013-03-31 20:21:00,
2013-03-31 13:32:00,39.0,24.0,30.40,SW,222,9.0,20.0,54,0.00,,,0.00,,2013-03-31 20:32:00,
2013-03-31 13:42:00,39.0,24.0,30.40,SW,222,9.0,20.0,54,0.00,,,0.00,,2013-03-31 20:42:00,
2013-03-31 13:52:00,39.0,22.0,30.39,SSW,211,7.0,18.0,51,0.00,,,0.00,,2013-03-31 20:52:00,
2013-03-31 14:02:00,39.0,22.0,30.38,SSW,199,9.0,21.0,51,0.00,,,0.00,,2013-03-31 21:02:00,
2013-03-31 14:11:00,39.0,22.0,30.38,SSW,199,9.0,21.0,51,0.00,,,0.00,,2013-03-31 21:11:00,
2013-03-31 14:22:00,37.0,23.0,30.37,WSW,247,6.0,15.0,56,0.00,,,0.00,,2013-03-31 21:22:00,
2013-03-31 14:33:00,38.0,25.0,30.37,WSW,238,10.0,19.0,58,0.00,,,0.00,,2013-03-31 21:33:00,
2013-03-31 14:42:00,38.0,25.0,30.37,WSW,238,10.0,19.0,58,0.00,,,0.00,,2013-03-31 21:42:00,
2013-03-31 14:53:00,37.0,23.0,30.37,SSW,196,8.0,19.0,56,0.00,,,0.00,,2013-03-31 21:53:00,
2013-03-31 15:02:00,37.0,24.0,30.37,South,187,8.0,16.0,58,0.00,,,0.00,,2013-03-31 22:02:00,
2013-03-31 15:12:00,37.0,24.0,30.37,South,187,8.0,16.0,58,0.00,,,0.00,,2013-03-31 22:12:00,
2013-03-31 15:23:00,37.0,24.0,30.35,SSW,192,8.0,18.0,58,0.00,,,0.00,,2013-03-31 22:23:00,
2013-03-31 15:32:00,39.0,23.0,30.35,SW,229,9.0,18.0,53,0.00,,,0.00,,2013-03-31 22:32:00,
2013-03-31 15:42:00,39.0,23.0,30.35,SW,229,9.0,18.0,53,0.00,,,0.00,,2013-03-31 22:42:00,
2013-03-31 15:53:00,38.0,24.0,30.35,South,187,14.0,27.0,56,0.00,,,0.00,,2013-03-31 22:53:00,
2013-03-31 16:02:00,36.0,22.0,30.34,South,189,12.0,20.0,57,0.00,,,0.00,,2013-03-31 23:02:00,
2013-03-31 16:12:00,36.0,22.0,30.34,South,189,12.0,20.0,57,0.00,,,0.00,,2013-03-31 23:12:00,
2013-03-31 16:21:00,36.0,23.0,30.34,South,183,9.0,21.0,58,0.00,,,0.00,,2013-03-31 23:21:00,
2013-03-31 16:31:00,37.0,24.0,30.33,SSW,192,10.0,20.0,58,0.00,,,0.00,,2013-03-31 23:31:00,
2013-03-31 16:42:00,37.0,24.0,30.33,SSW,192,10.0,20.0,58,0.00,,,0.00,,2013-03-31 23:42:00,
2013-03-31 16:53:00,40.0,23.0,30.33,South,189,12.0,20.0,51,0.00,,,0.00,,2013-03-31 23:53:00,
2013-03-31 17:01:00,37.0,23.0,30.32,South,186,15.0,22.0,57,0.00,,,0.00,,2013-04-01 00:01:00,
2013-03-31 17:12:00,37.0,23.0,30.32,South,186,15.0,22.0,57,0.00,,,0.00,,2013-04-01 00:12:00,
2013-03-31 17:21:00,37.0,23.0,30.32,SSW,194,9.0,22.0,56,0.00,,,0.00,,2013-04-01 00:21:00,
2013-03-31 17:31:00,37.0,23.0,30.31,SSW,193,14.0,23.0,57,0.00,,,0.00,,2013-04-01 00:31:00,
2013-03-31 17:42:00,37.0,23.0,30.31,SSW,193,14.0,23.0,57,0.00,,,0.00,,2013-04-01 00:42:00,
2013-03-31 17:52:00,37.0,23.0,30.31,South,191,12.0,22.0,56,0.00,,,0.00,,2013-04-01 00:52:00,
2013-03-31 18:01:00,37.0,22.0,30.31,South,181,12.0,20.0,55,0.00,,,0.00,,2013-04-01 01:01:00,
2013-03-31 18:11:00,37.0,22.0,30.31,South,181,12.0,20.0,55,0.00,,,0.00,,2013-04-01 01:11:00,
2013-03-31 18:21:00,37.0,22.0,30.30,South,179,14.0,24.0,55,0.00,,,0.00,,2013-04-01 01:21:00,
2013-03-31 18:31:00,36.0,21.0,30.30,South,182,14.0,23.0,55,0.00,,,0.00,,2013-04-01 01:31:00,
2013-03-31 18:42:00,36.0,21.0,30.30,South,182,14.0,23.0,55,0.00,,,0.00,,2013-04-01 01:42:00,
2013-03-31 18:52:00,35.0,20.0,30.30,South,190,13.0,23.0,53,0.00,,,0.00,,2013-04-01 01:52:00,
2013-03-31 19:02:00,33.0,19.0,30.30,SSW,206,12.0,23.0,55,0.00,,,0.00,,2013-04-01 02:02:00,
2013-03-31 19:11:00,33.0,19.0,30.30,SSW,206,12.0,23.0,55,0.00,,,0.00,,2013-04-01 02:11:00,
2013-03-31 19:21:00,32.0,18.0,30.30,South,190,14.0,24.0,56,0.00,,,0.00,,2013-04-01 02:21:00,
2013-03-31 19:32:00,32.0,19.0,30.30,SSW,199,13.0,21.0,58,0.00,,,0.00,,2013-04-01 02:32:00,
2013-03-31 19:42:00,32.0,19.0,30.30,SSW,199,13.0,21.0,58,0.00,,,0.00,,2013-04-01 02:42:00,
2013-03-31 19:52:00,31.0,19.0,30.30,South,190,13.0,24.0,60,0.00,,,0.00,,2013-04-01 02:52:00,
2013-03-31 20:02:00,31.0,20.0,30.30,South,188,13.0,21.0,63,0.00,,,0.00,,2013-04-01 03:02:00,
2013-03-31 20:11:00,31.0,20.0,30.30,South,188,13.0,21.0,63,0.00,,,0.00,,2013-04-01 03:11:00,
2013-03-31 20:22:00,31.0,20.0,30.29,South,186,17.0,24.0,64,0.00,,,0.00,,2013-04-01 03:22:00,
2013-03-31 20:32:00,30.0,20.0,30.29,South,186,15.0,26.0,65,0.00,,,0.00,,2013-04-01 03:32:00,
2013-03-31 20:42:00,30.0,20.0,30.29,South,186,15.0,26.0,65,0.00,,,0.00,,2013-04-01 03:42:00,
2013-03-31 20:52:00,30.0,20.0,30.29,South,184,13.0,23.0,66,0.00,,,0.00,,2013-04-01 03:52:00,
2013-03-31 21:02:00,30.0,20.0,30.29,South,185,13.0,23.0,66,0.00,,,0.00,,2013-04-01 04:02:00,
2013-03-31 21:12:00,30.0,20.0,30.29,South,185,13.0,23.0,66,0.00,,,0.00,,2013-04-01 04:12:00,
2013-03-31 21:22:00,29.0,19.0,30.29,South,183,14.0,23.0,67,0.00,,,0.00,,2013-04-01 04:22:00,
2013-03-31 21:32:00,29.0,20.0,30.29,South,182,13.0,22.0,68,0.00,,,0.00,,2013-04-01 04:32:00,
2013-03-31 21:42:00,29.0,20.0,30.29,South,182,13.0,22.0,68,0.00,,,0.00,,2013-04-01 04:42:00,
2013-03-31 21:52:00,29.0,20.0,30.30,South,179,13.0,23.0,69,0.00,,,0.00,,2013-04-01 04:52:00,
2013-03-31 22:02:00,29.0,20.0,30.30,South,180,12.0,20.0,69,0.00,,,0.00,,2013-04-01 05:02:00,
2013-03-31 22:12:00,29.0,20.0,30.30,South,180,12.0,20.0,69,0.00,,,0.00,,2013-04-01 05:12:00,
2013-03-31 22:21:00,29.0,20.0,30.30,South,181,13.0,22.0,70,0.00,,,0.00,,2013-04-01 05:21:00,
2013-03-31 22:32:00,29.0,20.0,30.29,South,182,13.0,25.0,70,0.00,,,0.00,,2013-04-01 05:32:00,
2013-03-31 22:42:00,29.0,20.0,30.29,South,182,13.0,25.0,70,0.00,,,0.00,,2013-04-01 05:42:00,
2013-03-31 22:52:00,28.0,19.0,30.29,South,182,15.0,23.0,69,0.00,,,0.00,,2013-04-01 05:52:00,
2013-03-31 23:01:00,28.0,20.0,30.28,South,181,12.0,26.0,71,0.00,,,0.00,,2013-04-01 06:01:00,
2013-03-31 23:12:00,28.0,20.0,30.28,South,181,12.0,26.0,71,0.00,,,0.00,,2013-04-01 06:12:00,
2013-03-31 23:22:00,28.0,20.0,30.27,South,177,14.0,22.0,72,0.00,,,0.00,,2013-04-01 06:22:00,
2013-03-31 23:32:00,28.0,21.0,30.27,South,184,16.0,24.0,74,0.00,,,0.00,,2013-04-01 06:32:00,
2013-03-31 23:42:00,28.0,21.0,30.27,South,184,16.0,24.0,74,0.00,,,0.00,,2013-04-01 06:42:00,
2013-03-31 23:52:00,28.0,21.0,30.26,South,179,15.0,23.0,74,0.00,,,0.00,,2013-04-01 06:52:00,